createdAt,value
2022-12-08T00:01:50.137Z,100446.47
2022-12-08T00:04:56.797Z,100443.06
2022-12-08T00:08:00.537Z,100440.50
2022-12-08T00:10:49.434Z,100448.38
2022-12-08T00:13:36.542Z,100438.81
2022-12-08T00:16:24.478Z,100431.97
2022-12-08T00:19:11.199Z,100443.09
2022-12-08T00:21:58.562Z,100440.44
2022-12-08T00:24:46.521Z,100443.09
2022-12-08T00:27:33.536Z,100444.78
2022-12-08T00:30:20.487Z,100441.44
2022-12-08T00:33:08.578Z,100438.94
2022-12-08T00:35:55.598Z,100293.44
2022-12-08T00:38:44.800Z,100424.97
2022-12-08T00:41:48.811Z,100424.19
2022-12-08T00:44:35.638Z,100415.59
2022-12-08T00:47:24.836Z,100418.13
2022-12-08T00:50:13.160Z,100369.38
2022-12-08T00:52:59.946Z,100415.44
2022-12-08T00:55:46.581Z,100419.72
2022-12-08T00:58:33.300Z,100412.75
2022-12-08T01:01:20.326Z,100413.66
2022-12-08T01:04:07.958Z,100405.19
2022-12-08T01:06:56.232Z,100401.72
2022-12-08T01:09:43.171Z,100408.72
2022-12-08T01:12:31.436Z,100413.09
2022-12-08T01:15:17.887Z,100410.47
2022-12-08T01:18:04.704Z,100406.09
2022-12-08T01:20:51.461Z,100407.84
2022-12-08T01:23:39.454Z,100403.53
2022-12-08T01:26:26.308Z,100398.31
2022-12-08T01:29:13.464Z,100394.81
2022-12-08T01:32:00.250Z,100394.84
2022-12-08T01:34:47.164Z,100393.13
2022-12-08T01:37:34.013Z,100397.44
2022-12-08T01:40:22.133Z,100398.34
2022-12-08T01:43:12.183Z,100401.88
2022-12-08T01:45:59.013Z,100399.19
2022-12-08T01:48:45.891Z,100399.31
2022-12-08T01:51:36.772Z,100397.50
2022-12-08T01:54:26.948Z,100385.34
2022-12-08T01:57:17.987Z,100377.63
2022-12-08T02:00:09.263Z,100375.03
2022-12-08T02:02:59.647Z,100375.03
2022-12-08T02:05:47.395Z,100380.22
2022-12-08T02:08:35.970Z,100381.13
2022-12-08T02:11:22.587Z,100375.91
2022-12-08T02:14:14.594Z,100380.22
2022-12-08T02:17:08.920Z,100371.56
2022-12-08T02:20:34.126Z,100353.31
2022-12-08T02:23:31.271Z,100375.94
2022-12-08T02:26:45.953Z,100365.47
2022-12-08T02:30:08.801Z,100367.16
2022-12-08T02:33:28.768Z,100372.34
2022-12-08T02:36:23.700Z,100362.78
2022-12-08T02:39:19.676Z,100334.16
2022-12-08T02:42:13.617Z,100357.59
2022-12-08T02:45:05.266Z,100350.63
2022-12-08T02:47:53.596Z,100349.78
2022-12-08T02:50:39.981Z,100348.03
2022-12-08T02:53:31.900Z,100340.22
2022-12-08T02:56:46.606Z,100340.22
2022-12-08T02:59:47.105Z,100336.72
2022-12-08T03:03:05.538Z,100326.28
2022-12-08T03:06:02.250Z,100330.59
2022-12-08T03:08:56.736Z,100323.63
2022-12-08T03:11:48.812Z,100319.31
2022-12-08T03:14:36.723Z,100308.00
2022-12-08T03:17:27.188Z,100306.28
2022-12-08T03:20:18.642Z,100305.41
2022-12-08T03:23:09.015Z,100301.94
2022-12-08T03:26:05.091Z,100262.84
2022-12-08T03:28:51.831Z,100296.72
2022-12-08T03:31:42.900Z,100284.56
2022-12-08T03:34:31.061Z,100282.84
2022-12-08T03:37:18.156Z,100276.78
2022-12-08T03:40:06.901Z,100265.50
2022-12-08T03:42:55.218Z,100265.50
2022-12-08T03:45:41.977Z,100265.47
2022-12-08T03:48:29.747Z,100259.41
2022-12-08T03:51:17.417Z,100262.00
2022-12-08T03:54:04.163Z,100261.16
2022-12-08T03:56:51.452Z,100229.00
2022-12-08T03:59:39.774Z,100248.13
2022-12-08T04:02:26.305Z,100243.78
2022-12-08T04:05:13.696Z,100241.19
2022-12-08T04:08:01.245Z,100231.63
2022-12-08T04:10:47.868Z,100222.97
2022-12-08T04:13:34.526Z,100222.13
2022-12-08T04:16:26.112Z,100222.13
2022-12-08T04:19:12.745Z,100215.19
2022-12-08T04:21:59.400Z,100209.09
2022-12-08T04:24:46.109Z,100206.50
2022-12-08T04:27:33.919Z,100200.44
2022-12-08T04:30:20.598Z,100201.31
2022-12-08T04:33:08.444Z,100200.44
2022-12-08T04:35:55.892Z,100195.22
2022-12-08T04:38:42.404Z,100195.22
2022-12-08T04:41:29.024Z,100194.38
2022-12-08T04:44:16.661Z,100194.38
2022-12-08T04:47:03.603Z,100194.38
2022-12-08T04:49:51.575Z,100185.69
2022-12-08T04:52:38.662Z,100189.16
2022-12-08T04:55:25.763Z,100190.91
2022-12-08T04:58:14.779Z,100179.59
2022-12-08T05:01:01.724Z,100181.31
2022-12-08T05:03:48.431Z,100179.59
2022-12-08T05:06:36.668Z,100183.94
2022-12-08T05:09:23.384Z,100183.94
2022-12-08T05:12:10.223Z,100183.06
2022-12-08T05:14:57.162Z,100183.06
2022-12-08T05:17:43.810Z,100188.22
2022-12-08T05:20:30.648Z,100188.22
2022-12-08T05:23:18.835Z,100183.00
2022-12-08T05:26:06.082Z,100178.66
2022-12-08T05:28:53.219Z,100173.50
2022-12-08T05:31:39.968Z,100171.72
2022-12-08T05:34:26.568Z,100176.94
2022-12-08T05:37:13.337Z,100173.50
2022-12-08T05:40:01.503Z,100166.56
2022-12-08T05:42:48.399Z,100163.06
2022-12-08T05:45:35.210Z,100162.16
2022-12-08T05:48:21.809Z,100164.81
2022-12-08T05:51:19.829Z,100162.19
2022-12-08T05:54:06.530Z,100160.41
2022-12-08T05:56:54.764Z,100162.19
2022-12-08T05:59:41.531Z,100157.84
2022-12-08T06:02:28.467Z,100161.34
2022-12-08T06:05:15.602Z,100157.88
2022-12-08T06:08:02.405Z,100156.97
2022-12-08T06:10:49.545Z,100158.72
2022-12-08T06:13:37.726Z,100161.34
2022-12-08T06:16:28.504Z,100169.16
2022-12-08T06:19:15.248Z,100163.94
2022-12-08T06:22:02.070Z,100164.81
2022-12-08T06:24:48.654Z,100158.72
2022-12-08T06:27:35.794Z,100163.00
2022-12-08T06:30:24.477Z,100158.72
2022-12-08T06:33:11.347Z,100162.13
2022-12-08T06:36:00.168Z,100150.84
2022-12-08T06:38:47.194Z,100167.38
2022-12-08T06:41:53.637Z,100169.16
2022-12-08T06:44:40.997Z,100169.97
2022-12-08T06:47:29.151Z,100164.75
2022-12-08T06:50:16.215Z,100163.88
2022-12-08T06:53:05.445Z,100161.25
2022-12-08T06:56:01.825Z,100165.63
2022-12-08T06:58:52.715Z,100165.63
2022-12-08T07:01:40.023Z,100170.81
2022-12-08T07:04:28.294Z,100170.84
2022-12-08T07:07:15.770Z,100167.34
2022-12-08T07:10:03.019Z,100160.41
2022-12-08T07:12:49.780Z,100168.22
2022-12-08T07:15:36.499Z,100168.22
2022-12-08T07:18:23.358Z,100166.47
2022-12-08T07:21:15.038Z,100162.13
2022-12-08T07:24:01.712Z,100167.31
2022-12-08T07:26:48.737Z,100175.16
2022-12-08T07:29:35.770Z,100171.66
2022-12-08T07:32:22.410Z,100175.13
2022-12-08T07:35:11.943Z,100170.78
2022-12-08T07:38:00.712Z,100170.78
2022-12-08T07:40:47.409Z,100165.50
2022-12-08T07:43:35.128Z,100167.28
2022-12-08T07:46:24.925Z,100167.28
2022-12-08T07:49:13.832Z,100167.28
2022-12-08T07:52:00.459Z,100162.00
2022-12-08T07:54:49.765Z,100158.53
2022-12-08T07:57:36.508Z,100166.38
2022-12-08T08:00:23.626Z,100172.41
2022-12-08T08:03:11.621Z,100169.81
2022-12-08T08:06:06.179Z,100169.78
2022-12-08T08:08:52.885Z,100166.34
2022-12-08T08:11:40.900Z,100175.03
2022-12-08T08:14:27.557Z,100172.41
2022-12-08T08:17:14.916Z,100176.75
2022-12-08T08:20:02.303Z,100181.97
2022-12-08T08:22:50.543Z,100182.84
2022-12-08T08:25:37.107Z,100178.44
2022-12-08T08:28:25.035Z,100181.09
2022-12-08T08:31:12.448Z,100179.28
2022-12-08T08:34:00.718Z,100180.94
2022-12-08T08:36:47.446Z,100178.34
2022-12-08T08:39:34.235Z,100168.69
2022-12-08T08:42:21.784Z,100175.56
2022-12-08T08:45:10.660Z,100105.31
2022-12-08T08:47:57.871Z,100171.06
2022-12-08T08:50:44.405Z,100172.75
2022-12-08T08:53:31.234Z,100163.25
2022-12-08T08:56:20.278Z,100174.41
2022-12-08T08:59:06.875Z,100179.66
2022-12-08T09:01:55.573Z,100162.16
2022-12-08T09:04:44.547Z,100173.53
2022-12-08T09:07:31.467Z,100165.69
2022-12-08T09:10:18.378Z,100167.38
2022-12-08T09:13:05.858Z,100166.50
2022-12-08T09:15:52.752Z,100143.81
2022-12-08T09:18:40.815Z,100163.91
2022-12-08T09:21:28.112Z,100165.59
2022-12-08T09:24:16.628Z,100151.59
2022-12-08T09:27:03.290Z,100155.19
2022-12-08T09:29:50.831Z,100154.44
2022-12-08T09:32:37.540Z,100156.16
2022-12-08T09:35:25.737Z,100144.78
2022-12-08T09:38:12.360Z,100147.25
2022-12-08T09:40:59.905Z,100143.63
2022-12-08T09:43:57.107Z,100131.31
2022-12-08T09:46:45.068Z,100135.53
2022-12-08T09:49:40.938Z,100130.97
2022-12-08T09:52:33.709Z,100134.31
2022-12-08T09:55:29.487Z,100125.53
2022-12-08T09:58:23.053Z,100126.47
2022-12-08T10:01:11.171Z,100127.41
2022-12-08T10:03:58.037Z,100122.28
2022-12-08T10:06:52.147Z,100133.69
2022-12-08T10:09:44.969Z,100119.06
2022-12-08T10:12:39.212Z,100119.25
2022-12-08T10:15:42.844Z,100124.50
2022-12-08T10:18:32.129Z,100115.97
2022-12-08T10:21:23.039Z,100120.19
2022-12-08T10:24:17.552Z,100117.59
2022-12-08T10:27:12.503Z,100118.59
2022-12-08T10:30:00.045Z,100114.97
2022-12-08T10:32:49.410Z,100119.28
2022-12-08T10:35:45.547Z,100105.31
2022-12-08T10:38:33.915Z,100107.91
2022-12-08T10:41:21.233Z,100112.38
2022-12-08T10:44:11.259Z,100104.41
2022-12-08T10:46:58.176Z,100104.47
2022-12-08T10:49:44.826Z,100106.22
2022-12-08T10:52:31.527Z,100111.38
2022-12-08T10:55:21.176Z,100081.88
2022-12-08T10:58:25.301Z,100100.78
2022-12-08T11:01:16.363Z,100106.09
2022-12-08T11:04:05.312Z,100042.88
2022-12-08T11:06:53.370Z,100100.91
2022-12-08T11:09:46.898Z,100093.78
2022-12-08T11:12:33.613Z,100094.66
2022-12-08T11:15:20.785Z,100091.03
2022-12-08T11:18:24.292Z,100083.38
2022-12-08T11:21:14.308Z,100092.00
2022-12-08T11:24:19.231Z,100089.38
2022-12-08T11:27:07.118Z,100091.25
2022-12-08T11:29:53.998Z,100086.75
2022-12-08T11:32:42.600Z,100095.56
2022-12-08T11:35:34.985Z,100088.69
2022-12-08T11:38:23.962Z,100083.44
2022-12-08T11:41:16.599Z,100079.09
2022-12-08T11:44:11.828Z,100081.69
2022-12-08T11:47:06.198Z,100086.91
2022-12-08T11:49:57.800Z,100091.19
2022-12-08T11:52:49.457Z,100091.28
2022-12-08T11:55:41.577Z,100085.34
2022-12-08T11:58:41.687Z,100102.78
2022-12-08T12:01:30.113Z,100099.13
2022-12-08T12:04:24.076Z,100094.78
2022-12-08T12:07:31.399Z,100091.22
2022-12-08T12:10:38.819Z,100086.06
2022-12-08T12:13:41.729Z,100098.38
2022-12-08T12:16:45.929Z,100090.38
2022-12-08T12:19:39.662Z,100085.34
2022-12-08T12:22:30.877Z,100092.28
2022-12-08T12:25:20.322Z,100093.97
2022-12-08T12:28:12.238Z,100093.88
2022-12-08T12:31:03.998Z,100056.75
2022-12-08T12:33:52.102Z,100104.47
2022-12-08T12:36:49.731Z,100099.38
2022-12-08T12:39:50.939Z,100100.16
2022-12-08T12:42:43.006Z,100101.16
2022-12-08T12:45:33.252Z,100095.75
2022-12-08T12:48:27.506Z,100103.69
2022-12-08T12:51:45.975Z,100093.28
2022-12-08T12:54:33.085Z,100098.59
2022-12-08T12:57:24.542Z,100093.31
2022-12-08T13:00:25.897Z,100087.06
2022-12-08T13:03:20.157Z,100081.94
2022-12-08T13:06:12.896Z,100088.09
2022-12-08T13:09:01.561Z,100065.22
2022-12-08T13:11:52.842Z,100073.88
2022-12-08T13:14:47.837Z,100076.50
2022-12-08T13:17:38.537Z,100073.91
2022-12-08T13:20:27.305Z,100075.53
2022-12-08T13:23:28.077Z,100077.19
2022-12-08T13:26:22.673Z,100079.91
2022-12-08T13:29:23.455Z,100031.44
2022-12-08T13:33:16.833Z,100086.00
2022-12-08T13:36:15.960Z,100083.47
2022-12-08T13:39:04.292Z,100080.78
2022-12-08T13:42:03.589Z,100080.81
2022-12-08T13:48:26.656Z,100081.81
2022-12-08T13:57:42.719Z,100087.66
2022-12-08T14:00:29.216Z,100094.00
2022-12-08T14:03:16.978Z,100100.00
2022-12-08T14:06:13.240Z,100093.91
2022-12-08T14:09:10.644Z,100098.97
2022-12-08T14:12:00.953Z,100100.75
2022-12-08T14:15:05.544Z,100096.47
2022-12-08T14:17:53.387Z,100104.25
2022-12-08T14:21:12.155Z,100106.22
2022-12-08T14:23:47.913Z,100111.47
2022-12-08T14:26:36.657Z,100090.59
2022-12-08T14:29:38.854Z,100107.22
2022-12-08T14:32:30.229Z,100106.47
2022-12-08T14:35:21.949Z,100108.38
2022-12-08T14:38:15.424Z,100105.75
2022-12-08T14:41:04.136Z,100115.31
2022-12-08T14:44:00.116Z,100114.50
2022-12-08T14:47:06.143Z,100121.41
2022-12-08T14:49:52.882Z,100124.88
2022-12-08T14:52:44.358Z,100118.69
2022-12-08T14:55:36.283Z,100113.41
2022-12-08T14:58:29.038Z,100117.88
2022-12-08T15:01:22.236Z,100118.00
2022-12-08T15:04:16.804Z,100115.41
2022-12-08T15:07:07.394Z,100122.47
2022-12-08T15:10:10.519Z,100119.03
2022-12-08T15:13:08.737Z,100134.72
2022-12-08T15:15:57.966Z,100132.13
2022-12-08T15:18:46.361Z,100126.94
2022-12-08T15:21:38.100Z,100121.69
2022-12-08T15:24:27.784Z,100128.72
2022-12-08T15:27:19.062Z,100133.13
2022-12-08T15:30:06.497Z,100130.59
2022-12-08T15:32:54.346Z,100128.00
2022-12-08T15:35:42.563Z,100139.34
2022-12-08T15:38:30.372Z,100148.09
2022-12-08T15:41:17.122Z,100146.34
2022-12-08T15:44:04.039Z,100144.63
2022-12-08T15:46:51.101Z,100148.13
2022-12-08T15:49:39.477Z,100150.75
2022-12-08T15:52:27.789Z,100149.91
2022-12-08T15:55:15.050Z,100149.91
2022-12-08T15:58:51.903Z,100147.28
2022-12-08T16:01:08.574Z,100150.78
2022-12-08T16:07:20.801Z,100161.16
2022-12-08T16:10:16.451Z,100158.50
2022-12-08T16:13:56.221Z,100155.03
2022-12-08T16:16:30.097Z,100121.22
2022-12-08T16:19:17.199Z,100163.81
2022-12-08T16:22:45.034Z,100158.63
2022-12-08T16:25:21.664Z,100117.91
2022-12-08T16:28:36.851Z,100165.63
2022-12-08T16:31:20.049Z,100091.00
2022-12-08T16:34:09.469Z,100161.34
2022-12-08T16:36:57.838Z,100163.94
2022-12-08T16:39:46.153Z,100142.25
2022-12-08T16:42:40.006Z,100173.50
2022-12-08T16:45:29.485Z,100169.16
2022-12-08T16:48:16.342Z,100170.03
2022-12-08T16:51:04.643Z,100177.84
2022-12-08T16:53:51.157Z,100172.66
2022-12-08T16:56:37.862Z,100177.00
2022-12-08T16:59:26.228Z,100174.38
2022-12-08T17:02:16.442Z,100175.25
2022-12-08T17:05:04.529Z,100178.72
2022-12-08T17:07:52.915Z,100178.72
2022-12-08T17:10:40.775Z,100177.84
2022-12-08T17:13:27.882Z,100168.31
2022-12-08T17:16:20.749Z,100176.97
2022-12-08T17:19:07.620Z,100180.47
2022-12-08T17:21:54.333Z,100182.19
2022-12-08T17:24:41.155Z,100167.41
2022-12-08T17:27:28.587Z,100189.13
2022-12-08T17:30:17.747Z,100182.16
2022-12-08T17:33:05.694Z,100187.41
2022-12-08T17:35:54.030Z,100184.78
2022-12-08T17:38:40.943Z,100200.41
2022-12-08T17:41:27.223Z,100190.84
2022-12-08T17:44:16.385Z,100201.28
2022-12-08T17:47:03.096Z,100206.47
2022-12-08T17:49:51.511Z,100206.47
2022-12-08T17:52:38.673Z,100211.69
2022-12-08T17:55:25.487Z,100204.72
2022-12-08T17:58:12.391Z,100201.25
2022-12-08T18:00:58.945Z,100209.06
2022-12-08T18:03:45.750Z,100207.31
2022-12-08T18:06:34.468Z,100204.69
2022-12-08T18:09:21.543Z,100209.91
2022-12-08T18:12:08.225Z,100212.50
2022-12-08T18:14:54.708Z,100205.53
2022-12-08T18:17:41.655Z,100218.59
2022-12-08T18:20:28.373Z,100208.19
2022-12-08T18:23:16.844Z,100210.78
2022-12-08T18:26:05.340Z,100213.41
2022-12-08T18:28:51.773Z,100216.00
2022-12-08T18:31:38.444Z,100222.09
2022-12-08T18:34:25.270Z,100216.88
2022-12-08T18:37:12.024Z,100220.34
2022-12-08T18:40:00.090Z,100219.47
2022-12-08T18:42:46.835Z,100208.22
2022-12-08T18:45:34.002Z,100217.78
2022-12-08T18:48:20.559Z,100224.69
2022-12-08T18:51:10.703Z,100195.97
2022-12-08T18:53:59.337Z,100222.00
2022-12-08T18:56:47.463Z,100225.47
2022-12-08T18:59:34.171Z,100235.91
2022-12-08T19:02:21.205Z,100238.53
2022-12-08T19:05:09.568Z,100245.50
2022-12-08T19:07:56.336Z,100247.28
2022-12-08T19:10:43.329Z,100243.81
2022-12-08T19:13:31.279Z,100242.97
2022-12-08T19:16:18.185Z,100246.44
2022-12-08T19:19:04.920Z,100249.91
2022-12-08T19:21:51.756Z,100245.59
2022-12-08T19:24:38.690Z,100256.88
2022-12-08T19:27:25.359Z,100256.88
2022-12-08T19:30:14.654Z,100254.31
2022-12-08T19:33:01.369Z,100253.41
2022-12-08T19:35:52.652Z,100259.50
2022-12-08T19:38:53.402Z,100254.28
2022-12-08T19:41:57.417Z,100257.78
2022-12-08T19:45:03.944Z,100258.63
2022-12-08T19:47:51.832Z,100261.22
2022-12-08T19:50:40.615Z,100262.09
2022-12-08T19:53:27.276Z,100263.84
2022-12-08T19:56:14.135Z,100269.91
2022-12-08T19:59:00.972Z,100276.00
2022-12-08T20:01:48.462Z,100277.75
2022-12-08T20:04:36.498Z,100281.25
2022-12-08T20:07:23.359Z,100285.59
2022-12-08T20:10:15.932Z,100282.97
2022-12-08T20:13:20.302Z,100291.63
2022-12-08T20:16:08.043Z,100292.50
2022-12-08T20:18:54.944Z,100296.84
2022-12-08T20:21:43.138Z,100301.19
2022-12-08T20:24:29.665Z,100295.13
2022-12-08T20:27:16.353Z,100300.34
2022-12-08T20:30:03.082Z,100301.25
2022-12-08T20:32:49.855Z,100294.28
2022-12-08T20:35:36.607Z,100301.22
2022-12-08T20:38:24.799Z,100309.88
2022-12-08T20:41:11.552Z,100310.75
2022-12-08T20:43:58.765Z,100318.56
2022-12-08T20:46:49.431Z,100304.69
2022-12-08T20:49:36.490Z,100308.19
2022-12-08T20:52:23.314Z,100309.03
2022-12-08T20:55:14.267Z,100321.19
2022-12-08T20:58:00.830Z,100309.88
2022-12-08T21:00:47.772Z,100311.63
2022-12-08T21:03:34.653Z,100322.88
2022-12-08T21:06:27.067Z,100321.13
2022-12-08T21:09:14.520Z,100318.53
2022-12-08T21:12:02.527Z,100314.19
2022-12-08T21:14:49.471Z,100316.81
2022-12-08T21:17:36.354Z,100321.16
2022-12-08T21:20:23.166Z,100232.44
2022-12-08T21:23:10.126Z,100332.44
2022-12-08T21:25:56.741Z,100332.44
2022-12-08T21:28:45.897Z,100327.22
2022-12-08T21:31:33.699Z,100330.75
2022-12-08T21:34:20.414Z,100321.16
2022-12-08T21:37:07.095Z,100328.09
2022-12-08T21:39:53.854Z,100333.28
2022-12-08T21:42:46.361Z,100340.22
2022-12-08T21:45:35.378Z,100344.56
2022-12-08T21:48:22.430Z,100348.94
2022-12-08T21:51:09.034Z,100349.78
2022-12-08T21:53:56.022Z,100344.63
2022-12-08T21:56:45.040Z,100340.25
2022-12-08T21:59:31.531Z,100345.44
2022-12-08T22:02:22.434Z,100353.25
2022-12-08T22:05:10.488Z,100352.38
2022-12-08T22:07:57.386Z,100344.56
2022-12-08T22:10:48.020Z,100266.25
2022-12-08T22:13:35.688Z,100350.56
2022-12-08T22:16:22.889Z,100348.81
2022-12-08T22:19:10.773Z,100353.97
2022-12-08T22:21:57.792Z,100349.59
2022-12-08T22:24:44.817Z,100346.94
2022-12-08T22:27:31.908Z,100343.41
2022-12-08T22:30:18.848Z,100359.03
2022-12-08T22:33:05.446Z,100354.66
2022-12-08T22:36:09.826Z,100357.25
2022-12-08T22:38:58.032Z,100358.97
2022-12-08T22:41:45.914Z,100356.34
2022-12-08T22:44:32.409Z,100359.81
2022-12-08T22:47:18.853Z,100354.56
2022-12-08T22:50:07.796Z,100351.06
2022-12-08T22:52:56.301Z,100351.91
2022-12-08T22:55:44.283Z,100358.06
2022-12-08T22:58:31.143Z,100348.63
2022-12-08T23:01:24.566Z,100351.97
2022-12-08T23:04:17.388Z,100336.25
2022-12-08T23:07:04.627Z,100339.66
2022-12-08T23:09:52.963Z,100355.34
2022-12-08T23:12:39.957Z,100347.56
2022-12-08T23:15:27.245Z,100354.56
2022-12-08T23:18:15.164Z,100325.81
2022-12-08T23:21:05.742Z,100341.47
2022-12-08T23:23:52.222Z,100337.94
2022-12-08T23:26:40.615Z,100336.16
2022-12-08T23:29:27.362Z,100334.34
2022-12-08T23:32:13.873Z,100327.31
2022-12-08T23:35:01.636Z,100331.59
2022-12-08T23:37:48.316Z,100336.72
2022-12-08T23:40:35.165Z,100336.69
2022-12-08T23:43:23.400Z,100353.16
2022-12-08T23:46:10.373Z,100351.50
2022-12-08T23:48:57.149Z,100350.69
2022-12-08T23:51:43.703Z,100341.19
2022-12-08T23:54:30.533Z,100342.91
2022-12-08T23:57:17.331Z,100355.84
